Time;durP1;ratioP1;P1;durP2;ratioP2;P2;SDS_P1;SDS_P2;PMS_P1;PMS_P2;Temp;Humidity;BMP_temperature;BMP_pressure;BME280_temperature;BME280_humidity;BME280_pressure;Samples;Min_cycle;Max_cycle;Signal;HPM_P1;HPM_P2
2022/09/10 00:01:43;;;;;;;2.40;0.90;;;13.80;99.90;;;;;;5096659;28;20436;-45
2022/09/10 00:04:10;;;;;;;1.90;0.73;;;13.80;99.90;;;;;;5098103;28;20180;-44
2022/09/10 00:06:37;;;;;;;1.30;0.50;;;13.90;99.90;;;;;;5095321;28;20260;-48
2022/09/10 00:09:04;;;;;;;2.47;0.80;;;13.90;99.90;;;;;;5096468;28;20465;-45
2022/09/10 00:11:30;;;;;;;1.80;0.90;;;13.90;99.90;;;;;;5096186;28;20407;-46
2022/09/10 00:13:59;;;;;;;1.20;0.70;;;13.90;99.90;;;;;;5096566;28;20829;-45
2022/09/10 00:16:26;;;;;;;3.07;0.60;;;13.80;99.90;;;;;;5098404;28;20876;-46
2022/09/10 00:18:52;;;;;;;1.00;0.60;;;13.80;99.90;;;;;;5098043;28;20431;-46
2022/09/10 00:21:19;;;;;;;3.37;0.80;;;13.90;99.90;;;;;;5098397;28;20394;-46
2022/09/10 00:23:46;;;;;;;1.33;0.77;;;14.00;99.90;;;;;;5095918;28;20196;-49
2022/09/10 00:26:26;;;;;;;2.73;0.80;;;14.00;99.90;;;;;;5097123;28;20431;-44
2022/09/10 00:28:53;;;;;;;1.20;0.70;;;14.00;99.90;;;;;;5097981;28;20465;-46
2022/09/10 00:31:20;;;;;;;1.67;0.97;;;14.00;99.90;;;;;;5097053;28;20431;-44
2022/09/10 00:33:46;;;;;;;1.13;0.60;;;14.00;99.90;;;;;;5097982;28;20528;-44
2022/09/10 00:36:13;;;;;;;1.43;0.70;;;13.90;99.90;;;;;;5098795;28;20511;-47
2022/09/10 00:38:39;;;;;;;1.40;0.77;;;13.90;99.90;;;;;;5099294;28;20414;-48
2022/09/10 00:41:07;;;;;;;1.77;0.80;;;13.90;99.90;;;;;;5099183;28;20799;-45
2022/09/10 00:43:47;;;;;;;1.33;0.87;;;13.90;99.90;;;;;;5098049;28;20275;-45
2022/09/10 00:46:24;;;;;;;3.30;1.50;;;13.90;99.90;;;;;;5098843;28;20778;-47
2022/09/10 00:48:51;;;;;;;2.40;0.83;;;13.90;99.90;;;;;;5096456;28;20430;-44
2022/09/10 00:51:18;;;;;;;1.90;0.90;;;13.90;99.90;;;;;;5097071;28;20521;-44
2022/09/10 00:53:44;;;;;;;2.33;0.63;;;13.90;99.90;;;;;;5096917;28;20697;-45
2022/09/10 00:56:10;;;;;;;1.63;0.87;;;13.80;99.90;;;;;;5096883;28;20483;-46
2022/09/10 00:58:35;;;;;;;1.10;0.63;;;13.80;99.90;;;;;;5097330;28;20415;-47
2022/09/10 01:01:01;;;;;;;1.77;0.70;;;13.70;99.90;;;;;;5098281;28;20177;-45
2022/09/10 01:03:31;;;;;;;2.70;1.00;;;13.80;99.90;;;;;;5098517;28;20166;-45
2022/09/10 01:05:57;;;;;;;2.00;0.83;;;13.80;99.90;;;;;;5097689;28;20180;-43
2022/09/10 01:08:23;;;;;;;1.03;0.60;;;13.80;99.90;;;;;;5098494;28;20424;-45
2022/09/10 01:10:58;;;;;;;1.63;0.80;;;13.90;99.90;;;;;;5079942;28;20432;-47
2022/09/10 01:13:27;;;;;;;1.47;0.80;;;13.80;99.90;;;;;;5099511;28;20829;-44
2022/09/10 01:16:09;;;;;;;1.70;1.00;;;13.80;99.90;;;;;;5098331;28;20464;-43
2022/09/10 01:18:58;;;;;;;3.73;1.07;;;13.80;99.90;;;;;;5098038;28;20432;-44
2022/09/10 01:21:39;;;;;;;1.83;0.70;;;13.80;99.90;;;;;;5097387;28;20428;-45
2022/09/10 01:24:32;;;;;;;2.70;1.03;;;13.80;99.90;;;;;;5097212;28;20415;-45
2022/09/10 01:27:01;;;;;;;2.13;1.17;;;13.80;99.90;;;;;;5098774;28;20412;-47
2022/09/10 01:29:37;;;;;;;3.17;1.03;;;13.80;99.90;;;;;;5098881;28;20835;-46
2022/09/10 01:32:17;;;;;;;2.20;0.97;;;13.70;99.90;;;;;;5097797;28;20464;-45
2022/09/10 01:34:50;;;;;;;1.90;1.40;;;13.80;99.90;;;;;;5096732;28;20483;-45
2022/09/10 01:37:27;;;;;;;2.07;1.17;;;13.80;99.90;;;;;;5097127;28;20430;-45
2022/09/10 01:39:52;;;;;;;1.93;1.10;;;13.80;99.90;;;;;;5097545;28;20728;-47
2022/09/10 01:42:18;;;;;;;1.60;1.30;;;13.90;99.90;;;;;;5098575;28;20429;-46
2022/09/10 01:44:44;;;;;;;2.50;1.30;;;13.90;99.90;;;;;;5098207;28;20184;-44
2022/09/10 01:47:24;;;;;;;4.30;1.40;;;13.90;99.90;;;;;;5097387;28;20192;-43
2022/09/10 01:50:11;;;;;;;3.83;1.27;;;13.90;99.90;;;;;;5095842;28;20511;-45
2022/09/10 01:53:01;;;;;;;4.10;1.80;;;13.80;99.90;;;;;;5096991;28;20470;-44
2022/09/10 01:55:30;;;;;;;1.90;1.40;;;13.80;99.90;;;;;;5098089;28;20452;-46
2022/09/10 01:58:15;;;;;;;2.27;1.47;;;13.80;99.90;;;;;;5096422;28;20423;-46
2022/09/10 02:00:46;;;;;;;1.77;1.30;;;13.70;99.90;;;;;;5097780;28;20418;-44
2022/09/10 02:03:15;;;;;;;3.53;1.20;;;13.70;99.90;;;;;;5096756;28;20476;-46
2022/09/10 02:05:43;;;;;;;1.90;1.40;;;13.70;99.90;;;;;;5098427;28;20477;-45
2022/09/10 02:08:16;;;;;;;5.63;2.40;;;13.70;99.90;;;;;;5096339;28;20741;-44
2022/09/10 02:10:58;;;;;;;4.33;1.50;;;13.70;99.90;;;;;;5098378;28;20418;-45
2022/09/10 02:13:24;;;;;;;1.60;1.30;;;13.70;99.90;;;;;;5097470;28;20520;-43
2022/09/10 02:15:51;;;;;;;2.13;1.10;;;13.80;99.90;;;;;;5097108;28;20709;-44
2022/09/10 02:18:18;;;;;;;5.07;1.50;;;13.80;99.90;;;;;;5096935;28;20696;-43
2022/09/10 02:20:45;;;;;;;3.70;1.60;;;13.90;99.90;;;;;;5096743;28;20430;-44
2022/09/10 02:23:12;;;;;;;2.33;1.50;;;13.80;99.90;;;;;;5097687;28;20419;-47
2022/09/10 02:25:37;;;;;;;3.30;1.40;;;13.80;99.90;;;;;;5097459;28;20403;-44
2022/09/10 02:28:04;;;;;;;2.73;1.30;;;13.80;99.90;;;;;;5097716;28;20461;-44
2022/09/10 02:30:30;;;;;;;3.43;1.30;;;13.80;99.90;;;;;;5098152;28;20165;-43
2022/09/10 02:32:55;;;;;;;2.37;1.47;;;13.80;99.90;;;;;;5097183;28;20428;-45
2022/09/10 02:35:21;;;;;;;2.07;1.17;;;13.80;99.90;;;;;;5097065;28;20507;-44
2022/09/10 02:37:49;;;;;;;3.50;1.50;;;13.80;99.90;;;;;;5096936;28;20177;-44
2022/09/10 02:40:17;;;;;;;3.43;1.40;;;13.80;99.90;;;;;;5095933;28;20198;-42
2022/09/10 02:42:45;;;;;;;3.03;1.60;;;13.70;99.90;;;;;;5095712;28;20423;-45
2022/09/10 02:45:14;;;;;;;2.90;1.40;;;13.80;99.90;;;;;;5095840;28;20485;-44
2022/09/10 02:47:39;;;;;;;4.10;1.70;;;13.70;99.90;;;;;;5096304;28;20530;-43
2022/09/10 02:50:06;;;;;;;3.00;1.57;;;13.70;99.90;;;;;;5097363;28;20489;-44
2022/09/10 02:52:32;;;;;;;2.90;1.57;;;13.70;99.90;;;;;;5096929;28;20198;-46
2022/09/10 02:54:58;;;;;;;2.73;1.30;;;13.70;99.90;;;;;;5097147;28;20459;-46
2022/09/10 02:57:24;;;;;;;3.00;1.47;;;13.70;99.90;;;;;;5097477;28;20193;-45
2022/09/10 02:59:51;;;;;;;3.27;1.30;;;13.70;99.90;;;;;;5096963;28;20408;-42
2022/09/10 03:02:17;;;;;;;2.83;1.67;;;13.70;99.90;;;;;;5097725;28;20498;-43
2022/09/10 03:04:43;;;;;;;1.40;1.20;;;13.70;99.90;;;;;;5097452;28;20771;-44
2022/09/10 03:07:08;;;;;;;2.23;1.20;;;13.60;99.90;;;;;;5096038;28;20629;-44
2022/09/10 03:09:34;;;;;;;2.80;1.90;;;13.60;99.90;;;;;;5097055;28;20172;-42
2022/09/10 03:12:00;;;;;;;2.43;1.30;;;13.70;99.90;;;;;;5097280;28;20181;-45
2022/09/10 03:14:27;;;;;;;3.73;1.80;;;13.60;99.90;;;;;;5097166;28;20171;-43
2022/09/10 03:16:52;;;;;;;1.77;1.60;;;13.50;99.90;;;;;;5096130;28;20207;-46
2022/09/10 03:19:20;;;;;;;3.60;2.10;;;13.50;99.90;;;;;;5096976;28;20433;-44
2022/09/10 03:21:46;;;;;;;3.93;1.90;;;13.50;99.90;;;;;;5097313;28;20236;-44
2022/09/10 03:24:11;;;;;;;3.90;1.80;;;13.40;99.90;;;;;;5097162;28;20455;-44
2022/09/10 03:26:37;;;;;;;5.13;1.93;;;13.40;99.90;;;;;;5094439;28;20768;-45
2022/09/10 03:29:03;;;;;;;3.00;1.60;;;13.50;99.90;;;;;;5097002;28;20185;-46
2022/09/10 03:31:29;;;;;;;3.40;1.83;;;13.50;99.90;;;;;;5096396;28;20205;-44
2022/09/10 03:33:56;;;;;;;3.77;2.00;;;13.50;99.90;;;;;;5093792;28;20778;-43
2022/09/10 03:36:22;;;;;;;1.93;1.50;;;13.60;99.90;;;;;;5077882;28;20909;-45
2022/09/10 03:38:47;;;;;;;6.27;1.97;;;13.50;99.90;;;;;;5076800;28;20424;-43
2022/09/10 03:41:13;;;;;;;2.43;1.40;;;13.60;99.90;;;;;;5078196;28;20185;-42
2022/09/10 03:43:39;;;;;;;4.50;1.67;;;13.50;99.90;;;;;;5076877;28;20276;-44
2022/09/10 03:46:05;;;;;;;4.17;1.80;;;13.50;99.90;;;;;;5076624;28;20434;-43
2022/09/10 03:48:31;;;;;;;3.50;1.67;;;13.50;99.90;;;;;;5076902;28;20177;-46
2022/09/10 03:50:56;;;;;;;4.37;1.67;;;13.50;99.90;;;;;;5078083;28;20192;-44
2022/09/10 03:53:22;;;;;;;1.80;1.37;;;13.50;99.90;;;;;;5079547;28;20186;-43
2022/09/10 03:55:49;;;;;;;2.00;1.60;;;13.50;99.90;;;;;;5076537;28;20241;-44
2022/09/10 03:58:16;;;;;;;5.17;1.50;;;13.50;99.90;;;;;;5077590;28;20809;-45
2022/09/10 04:00:42;;;;;;;3.30;1.57;;;13.50;99.90;;;;;;5080173;28;20508;-43
2022/09/10 04:03:09;;;;;;;3.30;2.00;;;13.50;99.90;;;;;;5080376;28;20498;-42
2022/09/10 04:05:38;;;;;;;2.07;1.30;;;13.40;99.90;;;;;;5078499;28;20477;-41
2022/09/10 04:08:06;;;;;;;5.20;2.27;;;13.40;99.90;;;;;;5077152;28;20532;-43
2022/09/10 04:10:32;;;;;;;3.13;1.50;;;13.40;99.90;;;;;;5077647;28;20414;-42
2022/09/10 04:12:58;;;;;;;2.10;1.33;;;13.40;99.90;;;;;;5077459;28;20453;-46
2022/09/10 04:15:24;;;;;;;2.07;1.30;;;13.40;99.90;;;;;;5077445;28;20491;-45
2022/09/10 04:17:50;;;;;;;3.70;1.50;;;13.30;99.90;;;;;;5076439;28;20848;-45
2022/09/10 04:20:21;;;;;;;2.23;1.40;;;13.30;99.90;;;;;;5077278;28;20430;-45
2022/09/10 04:22:47;;;;;;;2.73;1.40;;;13.20;99.90;;;;;;5077867;28;20498;-47
2022/09/10 04:25:14;;;;;;;2.63;1.10;;;13.30;99.90;;;;;;5078461;28;20495;-45
2022/09/10 04:27:43;;;;;;;2.67;1.03;;;13.30;99.90;;;;;;5078549;28;20822;-45
2022/09/10 04:30:10;;;;;;;2.77;1.20;;;13.30;99.90;;;;;;5079018;28;20855;-47
2022/09/10 04:32:36;;;;;;;3.60;2.00;;;13.20;99.90;;;;;;5079539;28;20431;-44
2022/09/10 04:35:01;;;;;;;1.60;1.40;;;13.20;99.90;;;;;;5078330;28;20511;-46
2022/09/10 04:37:28;;;;;;;2.17;1.50;;;13.30;99.90;;;;;;5075203;28;20473;-46
2022/09/10 04:39:53;;;;;;;2.27;1.83;;;13.30;99.90;;;;;;5074272;28;20258;-44
2022/09/10 04:42:19;;;;;;;3.50;1.40;;;13.20;99.90;;;;;;5075793;28;20428;-44
2022/09/10 04:44:50;;;;;;;4.20;1.40;;;13.20;99.90;;;;;;5076220;28;20170;-45
2022/09/10 04:47:16;;;;;;;4.40;1.27;;;13.30;99.90;;;;;;5076394;28;20601;-46
2022/09/10 04:49:42;;;;;;;2.50;1.43;;;13.30;99.90;;;;;;5074665;28;20824;-44
2022/09/10 04:52:09;;;;;;;2.33;1.23;;;13.40;99.90;;;;;;5073146;28;20697;-44
2022/09/10 04:54:36;;;;;;;2.60;1.17;;;13.40;99.90;;;;;;5075381;28;20461;-46
2022/09/10 04:57:03;;;;;;;2.90;1.10;;;13.40;99.90;;;;;;5076599;28;20412;-44
2022/09/10 04:59:28;;;;;;;2.00;1.13;;;13.40;99.90;;;;;;5077410;28;20500;-44
2022/09/10 05:01:54;;;;;;;2.90;1.40;;;13.40;99.90;;;;;;5075404;28;20412;-46
2022/09/10 05:04:19;;;;;;;2.33;1.33;;;13.40;99.90;;;;;;5075890;28;20439;-45
2022/09/10 05:06:49;;;;;;;2.17;1.20;;;13.40;99.90;;;;;;5076210;28;20185;-46
2022/09/10 05:09:15;;;;;;;3.10;1.60;;;13.40;99.90;;;;;;5076622;28;20182;-46
2022/09/10 05:11:41;;;;;;;3.33;1.40;;;13.40;99.90;;;;;;5077588;28;20414;-45
2022/09/10 05:14:07;;;;;;;1.57;1.17;;;13.40;99.90;;;;;;5077409;28;20429;-45
2022/09/10 05:16:33;;;;;;;2.63;1.20;;;13.40;99.90;;;;;;5078245;28;20889;-46
2022/09/10 05:18:58;;;;;;;3.30;1.90;;;13.40;99.90;;;;;;5077939;28;20177;-46
2022/09/10 05:21:25;;;;;;;1.57;1.17;;;13.40;99.90;;;;;;5077311;28;20169;-43
2022/09/10 05:23:50;;;;;;;2.80;1.30;;;13.40;99.90;;;;;;5076808;28;20174;-45
2022/09/10 05:26:16;;;;;;;1.80;1.30;;;13.40;99.90;;;;;;5075624;28;20419;-44
2022/09/10 05:28:41;;;;;;;2.93;2.23;;;13.40;99.90;;;;;;5076512;28;20181;-46
2022/09/10 05:31:08;;;;;;;2.40;1.20;;;13.50;99.90;;;;;;5076808;28;20552;-46
2022/09/10 05:33:35;;;;;;;2.33;1.40;;;13.50;99.90;;;;;;5076510;28;20230;-44
2022/09/10 05:36:01;;;;;;;3.20;1.47;;;13.50;99.90;;;;;;5077039;28;20463;-43
2022/09/10 05:38:27;;;;;;;1.63;1.20;;;13.60;99.90;;;;;;5078025;28;20466;-44
2022/09/10 05:40:52;;;;;;;3.03;1.50;;;13.50;99.90;;;;;;5076255;28;20416;-45
2022/09/10 05:43:19;;;;;;;2.20;1.50;;;13.50;99.90;;;;;;5076189;28;20438;-45
2022/09/10 05:45:45;;;;;;;2.33;1.40;;;13.50;99.90;;;;;;5075702;28;20170;-44
2022/09/10 05:48:12;;;;;;;2.67;1.60;;;13.50;99.90;;;;;;5074565;28;20487;-45
2022/09/10 05:50:37;;;;;;;2.27;1.40;;;13.50;99.90;;;;;;5076175;28;20768;-45
2022/09/10 05:53:03;;;;;;;2.40;1.33;;;13.60;99.90;;;;;;5075488;28;20537;-45
2022/09/10 05:55:30;;;;;;;1.90;1.30;;;13.60;99.90;;;;;;5077026;28;20205;-44
2022/09/10 05:57:57;;;;;;;3.53;1.30;;;13.60;99.90;;;;;;5077333;28;20180;-44
2022/09/10 06:00:24;;;;;;;2.00;1.60;;;13.50;99.90;;;;;;5075655;28;20536;-45
2022/09/10 06:02:49;;;;;;;1.63;1.37;;;13.60;99.90;;;;;;5075192;28;20519;-45
2022/09/10 06:05:19;;;;;;;2.67;1.20;;;13.60;99.90;;;;;;5075429;28;20507;-44
2022/09/10 06:07:45;;;;;;;2.43;1.20;;;13.60;99.90;;;;;;5076372;28;20236;-44
2022/09/10 06:10:11;;;;;;;3.53;1.50;;;13.70;99.90;;;;;;5077609;28;20435;-45
2022/09/10 06:12:37;;;;;;;2.60;1.30;;;13.70;99.90;;;;;;5076199;28;20197;-43
2022/09/10 06:15:02;;;;;;;2.43;1.53;;;13.70;99.90;;;;;;5075111;28;20308;-44
2022/09/10 06:17:28;;;;;;;1.80;1.40;;;13.70;99.90;;;;;;5074770;28;20897;-46
2022/09/10 06:19:54;;;;;;;3.37;1.63;;;13.70;99.90;;;;;;5075203;28;20459;-46
2022/09/10 06:22:19;;;;;;;2.20;1.40;;;13.70;99.90;;;;;;5072295;28;20212;-45
2022/09/10 06:24:48;;;;;;;3.00;1.37;;;13.70;99.90;;;;;;5072570;28;20192;-43
2022/09/10 06:27:13;;;;;;;2.80;1.37;;;13.70;99.90;;;;;;5074156;28;20186;-46
2022/09/10 06:29:39;;;;;;;4.13;1.50;;;13.70;99.90;;;;;;5075623;28;20430;-45
2022/09/10 06:32:05;;;;;;;2.40;1.50;;;13.70;99.90;;;;;;5076039;28;20388;-44
2022/09/10 06:34:30;;;;;;;2.40;1.60;;;13.80;99.90;;;;;;5073994;28;20296;-45
2022/09/10 06:36:57;;;;;;;1.97;1.30;;;13.90;99.90;;;;;;5074148;28;20339;-45
2022/09/10 06:39:23;;;;;;;2.27;1.50;;;13.90;99.90;;;;;;5073559;28;20166;-45
2022/09/10 06:41:49;;;;;;;2.13;1.43;;;13.90;99.90;;;;;;5074490;28;20420;-47
2022/09/10 06:44:15;;;;;;;2.10;1.30;;;13.90;99.90;;;;;;5075033;28;20425;-44
2022/09/10 06:46:41;;;;;;;1.83;1.30;;;13.90;99.90;;;;;;5075077;28;20401;-44
2022/09/10 06:49:10;;;;;;;2.03;1.30;;;13.90;99.90;;;;;;5084083;28;20339;-45
2022/09/10 06:51:35;;;;;;;3.73;1.20;;;14.00;99.90;;;;;;5095314;28;20427;-43
2022/09/10 06:54:01;;;;;;;1.47;1.20;;;14.20;99.90;;;;;;5095185;28;20430;-44
2022/09/10 06:56:27;;;;;;;2.90;1.27;;;14.20;99.90;;;;;;5093723;28;20219;-43
2022/09/10 06:58:53;;;;;;;3.87;1.43;;;14.40;99.90;;;;;;5093515;28;20431;-43
2022/09/10 07:01:21;;;;;;;2.23;1.13;;;14.40;99.90;;;;;;5093809;28;20415;-45
2022/09/10 07:03:47;;;;;;;2.73;1.43;;;14.60;99.90;;;;;;5092114;28;20867;-46
2022/09/10 07:06:15;;;;;;;2.90;1.37;;;14.60;99.90;;;;;;5090798;28;20706;-44
2022/09/10 07:08:40;;;;;;;2.20;1.47;;;14.80;99.90;;;;;;5090569;28;20346;-44
2022/09/10 07:11:17;;;;;;;3.50;1.50;;;14.80;99.90;;;;;;5089619;28;20701;-43
2022/09/10 07:13:42;;;;;;;3.90;1.33;;;14.90;99.90;;;;;;5089912;28;20212;-43
2022/09/10 07:16:08;;;;;;;1.50;1.33;;;15.10;99.90;;;;;;5089213;28;20532;-45
2022/09/10 07:18:34;;;;;;;1.40;1.20;;;15.00;99.90;;;;;;5090062;28;20181;-43
2022/09/10 07:21:07;;;;;;;3.30;1.23;;;15.00;99.90;;;;;;5089538;28;20180;-44
2022/09/10 07:23:33;;;;;;;1.20;0.90;;;15.20;99.90;;;;;;5090418;28;20247;-46
2022/09/10 07:26:05;;;;;;;1.60;1.10;;;15.40;99.90;;;;;;5090460;28;20415;-46
2022/09/10 07:28:31;;;;;;;1.90;1.50;;;15.50;99.90;;;;;;5092687;28;20427;-44
2022/09/10 07:30:57;;;;;;;1.37;1.13;;;15.70;99.90;;;;;;5093462;28;20432;-46
2022/09/10 07:33:23;;;;;;;1.50;1.10;;;15.70;99.90;;;;;;5093618;28;20181;-45
2022/09/10 07:35:49;;;;;;;3.00;1.40;;;15.90;99.90;;;;;;5099234;28;20481;-46
2022/09/10 07:38:15;;;;;;;2.00;1.10;;;15.70;99.90;;;;;;5096851;28;20509;-43
2022/09/10 07:40:42;;;;;;;1.93;1.27;;;15.80;99.90;;;;;;5095741;28;20177;-47
2022/09/10 07:43:08;;;;;;;1.77;1.00;;;15.90;99.90;;;;;;5094378;28;20519;-44
2022/09/10 07:45:34;;;;;;;2.10;0.90;;;16.10;99.90;;;;;;5092539;28;20430;-45
2022/09/10 07:47:59;;;;;;;2.37;1.10;;;16.20;99.90;;;;;;5093243;28;20840;-46
2022/09/10 07:50:25;;;;;;;1.97;1.13;;;16.20;99.90;;;;;;5092976;28;20340;-47
2022/09/10 07:52:51;;;;;;;1.30;1.00;;;16.20;99.90;;;;;;5094462;28;20201;-44
2022/09/10 07:55:17;;;;;;;6.20;1.00;;;16.20;99.90;;;;;;5097311;28;20226;-44
2022/09/10 07:57:44;;;;;;;2.20;1.00;;;16.30;99.90;;;;;;5095625;28;20431;-43
2022/09/10 08:00:15;;;;;;;3.00;0.90;;;16.50;99.90;;;;;;5097715;28;20192;-43
2022/09/10 08:02:42;;;;;;;5.10;0.80;;;16.60;99.90;;;;;;5098037;28;20419;-46
2022/09/10 08:05:09;;;;;;;1.60;0.73;;;16.80;99.90;;;;;;5096879;28;20476;-42
2022/09/10 08:07:38;;;;;;;1.90;1.20;;;16.80;99.90;;;;;;5096482;28;20422;-43
2022/09/10 08:10:06;;;;;;;2.97;0.80;;;16.70;99.90;;;;;;5095193;28;20472;-45
2022/09/10 08:12:32;;;;;;;1.30;0.80;;;16.90;99.90;;;;;;5096186;28;20426;-43
2022/09/10 08:14:58;;;;;;;1.20;0.87;;;16.80;99.30;;;;;;5096071;28;20529;-43
2022/09/10 08:17:24;;;;;;;2.00;0.80;;;17.00;99.60;;;;;;5095715;28;20429;-45
2022/09/10 08:19:50;;;;;;;1.40;0.70;;;17.30;98.80;;;;;;5093735;28;20412;-47
2022/09/10 08:22:17;;;;;;;3.43;1.00;;;17.70;98.50;;;;;;5094517;28;20430;-45
2022/09/10 08:24:42;;;;;;;1.53;0.50;;;18.30;97.30;;;;;;5094177;28;20194;-46
2022/09/10 08:27:10;;;;;;;1.40;0.60;;;18.60;96.00;;;;;;5095474;28;20963;-49
2022/09/10 08:29:35;;;;;;;1.67;0.70;;;19.10;95.30;;;;;;5096833;28;20537;-44
2022/09/10 08:32:01;;;;;;;1.80;0.80;;;18.90;94.80;;;;;;5095916;28;20414;-43
2022/09/10 08:34:28;;;;;;;1.50;0.80;;;18.80;94.70;;;;;;5094935;28;20231;-44
2022/09/10 08:36:54;;;;;;;1.10;0.60;;;18.90;95.10;;;;;;5093982;28;20159;-45
2022/09/10 08:39:20;;;;;;;3.47;1.00;;;18.90;94.80;;;;;;5091745;28;20692;-45
2022/09/10 08:42:14;;;;;;;1.77;0.80;;;19.10;94.40;;;;;;5093734;28;20185;-49
2022/09/10 08:44:54;;;;;;;3.47;0.80;;;18.80;94.30;;;;;;5055639;28;20362;-45
2022/09/10 08:47:48;;;;;;;4.13;1.33;;;18.90;94.00;;;;;;5091497;28;20757;-44
2022/09/10 08:50:35;;;;;;;1.73;0.90;;;18.50;94.00;;;;;;5092354;28;20408;-43
2022/09/10 08:53:30;;;;;;;2.37;0.87;;;18.90;94.10;;;;;;5093557;28;20423;-44
2022/09/10 08:56:01;;;;;;;4.10;1.10;;;18.80;92.50;;;;;;5095062;28;20516;-43
2022/09/10 08:58:36;;;;;;;2.20;1.07;;;18.50;92.90;;;;;;5096455;28;20720;-44
2022/09/10 09:01:03;;;;;;;2.93;1.00;;;18.50;93.50;;;;;;5094050;28;20407;-45
2022/09/10 09:03:44;;;;;;;1.60;0.80;;;18.50;93.10;;;;;;5093417;28;20433;-46
2022/09/10 09:06:31;;;;;;;5.43;1.30;;;18.50;93.50;;;;;;5090641;28;20470;-44
2022/09/10 09:08:59;;;;;;;2.70;1.07;;;18.50;93.40;;;;;;5093012;28;20864;-46
2022/09/10 09:11:49;;;;;;;1.93;0.87;;;18.40;93.50;;;;;;5095683;28;20773;-47
2022/09/10 09:14:47;;;;;;;3.77;1.30;;;18.40;93.10;;;;;;5095089;28;20411;-45
2022/09/10 09:17:26;;;;;;;3.53;1.13;;;18.00;92.90;;;;;;5092526;28;20412;-44
2022/09/10 09:19:57;;;;;;;2.40;1.03;;;17.80;93.80;;;;;;5092823;28;20411;-47
2022/09/10 09:22:49;;;;;;;5.23;1.13;;;17.70;94.30;;;;;;5091972;28;20466;-45
2022/09/10 09:25:21;;;;;;;2.30;0.97;;;17.70;94.00;;;;;;5090663;28;20523;-44
2022/09/10 09:27:56;;;;;;;2.40;1.00;;;17.80;94.70;;;;;;5091484;28;20867;-44
2022/09/10 09:30:30;;;;;;;4.50;1.43;;;17.60;94.10;;;;;;5090522;28;20728;-44
2022/09/10 09:33:02;;;;;;;5.03;1.07;;;17.60;94.30;;;;;;5088966;28;20418;-46
2022/09/10 09:35:35;;;;;;;2.33;1.40;;;17.60;94.30;;;;;;5089380;28;20742;-43
2022/09/10 09:38:17;;;;;;;3.63;1.03;;;17.50;94.10;;;;;;5088298;28;20539;-44
2022/09/10 09:40:49;;;;;;;3.17;1.10;;;17.40;94.50;;;;;;5088748;28;20422;-45
2022/09/10 09:43:26;;;;;;;4.63;1.23;;;17.40;94.60;;;;;;5089598;28;20752;-44
2022/09/10 09:45:52;;;;;;;4.23;1.20;;;17.30;94.90;;;;;;5092412;28;20484;-45
2022/09/10 09:48:19;;;;;;;3.00;1.33;;;17.40;95.20;;;;;;5091535;28;20911;-44
2022/09/10 09:50:53;;;;;;;7.20;1.57;;;17.40;94.90;;;;;;5089290;28;20420;-45
2022/09/10 09:53:25;;;;;;;2.33;1.23;;;17.30;95.00;;;;;;5089322;28;20439;-45
2022/09/10 09:56:03;;;;;;;2.87;1.00;;;17.30;95.50;;;;;;5088786;28;20463;-45
2022/09/10 09:58:35;;;;;;;6.67;1.33;;;17.50;95.00;;;;;;5090694;28;20953;-45
2022/09/10 10:01:03;;;;;;;2.60;0.93;;;17.90;94.90;;;;;;5091900;28;20451;-44
2022/09/10 10:03:57;;;;;;;1.70;1.00;;;17.80;94.20;;;;;;5092840;28;21026;-44
2022/09/10 10:06:43;;;;;;;4.20;1.20;;;18.00;94.30;;;;;;5091509;28;21004;-44
2022/09/10 10:09:23;;;;;;;2.60;1.40;;;17.80;94.40;;;;;;5074785;28;20880;-45
2022/09/10 10:12:04;;;;;;;3.60;1.47;;;17.90;94.40;;;;;;5091299;28;20422;-44
2022/09/10 10:14:29;;;;;;;4.87;2.37;;;18.10;94.30;;;;;;5091093;28;20434;-45
2022/09/10 10:16:57;;;;;;;2.67;1.17;;;18.20;94.20;;;;;;5092435;28;20399;-43
2022/09/10 10:19:37;;;;;;;1.40;0.70;;;18.50;93.70;;;;;;5089488;28;20187;-44
2022/09/10 10:22:23;;;;;;;1.37;0.80;;;18.80;93.50;;;;;;5092868;28;20794;-44
2022/09/10 10:24:50;;;;;;;1.70;0.80;;;20.50;91.10;;;;;;5090897;28;20668;-44
2022/09/10 10:27:29;;;;;;;2.50;0.97;;;21.10;88.30;;;;;;5091151;28;20410;-45
2022/09/10 10:30:02;;;;;;;2.00;0.70;;;21.00;87.20;;;;;;5092362;28;20427;-46
2022/09/10 10:32:50;;;;;;;3.03;0.90;;;21.30;85.70;;;;;;5093312;28;20413;-43
2022/09/10 10:35:46;;;;;;;1.93;0.77;;;21.80;83.70;;;;;;5092384;28;20474;-44
2022/09/10 10:38:28;;;;;;;3.60;1.07;;;22.30;80.30;;;;;;5090211;28;20912;-45
2022/09/10 10:41:23;;;;;;;2.77;1.00;;;23.80;76.50;;;;;;5092342;28;20488;-44
2022/09/10 10:44:22;;;;;;;3.87;1.07;;;24.70;71.70;;;;;;5082041;28;20490;-43
2022/09/10 10:47:05;;;;;;;1.97;1.17;;;25.80;66.70;;;;;;5089235;28;20413;-47
2022/09/10 10:49:58;;;;;;;3.40;0.80;;;26.70;62.50;;;;;;5091093;28;20779;-45
2022/09/10 10:52:30;;;;;;;1.73;0.70;;;26.80;58.00;;;;;;5091807;28;20467;-45
2022/09/10 10:55:01;;;;;;;2.23;0.87;;;25.60;58.10;;;;;;5089844;28;20826;-46
2022/09/10 10:58:06;;;;;;;1.70;0.70;;;23.80;60.60;;;;;;5091807;28;20920;-46
2022/09/10 11:00:42;;;;;;;1.80;0.90;;;23.00;65.00;;;;;;5008296;28;20437;-47
2022/09/10 11:03:14;;;;;;;1.60;0.70;;;22.70;67.50;;;;;;5009585;28;20448;-45
2022/09/10 11:05:50;;;;;;;3.07;0.93;;;24.30;64.50;;;;;;5063027;28;20438;-44
2022/09/10 11:08:54;;;;;;;2.17;1.00;;;24.70;61.20;;;;;;5078657;28;20509;-48
2022/09/10 11:11:28;;;;;;;2.03;0.80;;;25.20;59.60;;;;;;5053602;28;20731;-44
2022/09/10 11:14:05;;;;;;;2.63;1.00;;;25.60;57.60;;;;;;5096286;28;20430;-46
2022/09/10 11:16:40;;;;;;;5.27;1.63;;;25.80;57.00;;;;;;5096753;28;20847;-46
2022/09/10 11:19:36;;;;;;;1.40;0.70;;;25.80;55.60;;;;;;5094964;28;20421;-45
2022/09/10 11:22:35;;;;;;;2.40;0.93;;;26.60;55.40;;;;;;5072278;28;20709;-46
2022/09/10 11:25:27;;;;;;;4.70;1.17;;;26.80;53.40;;;;;;5048140;28;20837;-43
2022/09/10 11:27:58;;;;;;;1.93;0.87;;;27.20;52.40;;;;;;5094188;28;20425;-46
2022/09/10 11:30:24;;;;;;;2.90;1.23;;;27.30;52.50;;;;;;5094863;28;20452;-46
2022/09/10 11:32:56;;;;;;;3.50;1.20;;;27.20;51.70;;;;;;5094592;28;20434;-45
2022/09/10 11:35:48;;;;;;;7.20;1.67;;;27.60;51.10;;;;;;5088995;28;20479;-45
2022/09/10 11:38:42;;;;;;;3.37;1.27;;;27.40;50.80;;;;;;5091907;28;20425;-47
2022/09/10 11:41:13;;;;;;;3.53;1.10;;;26.90;51.50;;;;;;5097402;28;20418;-44
2022/09/10 11:43:50;;;;;;;8.50;1.67;;;26.60;52.10;;;;;;5098751;28;20683;-46
2022/09/10 11:46:24;;;;;;;4.90;1.20;;;26.90;52.40;;;;;;5098786;28;20439;-46
2022/09/10 11:49:02;;;;;;;3.03;1.10;;;27.90;50.90;;;;;;5096633;28;20414;-46
2022/09/10 11:51:32;;;;;;;2.47;1.07;;;27.30;50.50;;;;;;5096482;28;20435;-45
2022/09/10 11:53:58;;;;;;;2.73;1.10;;;27.10;50.20;;;;;;5086318;28;20493;-45
2022/09/10 11:56:35;;;;;;;2.50;1.10;;;27.00;50.30;;;;;;5094636;28;20575;-47
2022/09/10 11:59:16;;;;;;;2.17;0.97;;;27.30;50.50;;;;;;5093480;28;20172;-45
2022/09/10 12:02:02;;;;;;;2.70;1.00;;;25.90;51.00;;;;;;5095039;28;20847;-46
2022/09/10 12:05:03;;;;;;;3.10;1.40;;;24.30;53.70;;;;;;5094230;28;20422;-48
2022/09/10 12:07:55;;;;;;;4.17;1.00;;;23.90;53.70;;;;;;5020563;28;20476;-46
2022/09/10 12:10:31;;;;;;;4.50;1.10;;;23.80;55.00;;;;;;5092564;28;20518;-45
2022/09/10 12:12:57;;;;;;;5.50;1.50;;;23.50;55.30;;;;;;5095154;28;20502;-46
2022/09/10 12:15:32;;;;;;;2.07;0.90;;;23.10;55.10;;;;;;5093985;28;20461;-47
2022/09/10 12:18:17;;;;;;;2.07;1.23;;;22.20;55.90;;;;;;5080355;28;20437;-47
2022/09/10 12:20:49;;;;;;;3.47;0.87;;;21.60;58.00;;;;;;5085173;28;20423;-46
2022/09/10 12:23:35;;;;;;;1.93;1.00;;;21.90;58.90;;;;;;5097219;28;20839;-45
2022/09/10 12:26:09;;;;;;;3.53;1.20;;;21.90;59.50;;;;;;5096778;28;20432;-44
2022/09/10 12:28:40;;;;;;;4.73;1.10;;;21.50;60.00;;;;;;5094323;28;20435;-50
2022/09/10 12:31:10;;;;;;;2.70;1.37;;;21.50;62.80;;;;;;5093735;28;20447;-48
2022/09/10 12:33:35;;;;;;;5.20;1.03;;;21.70;62.20;;;;;;5095365;28;20462;-46
2022/09/10 12:36:02;;;;;;;3.97;1.00;;;22.20;59.00;;;;;;5095562;28;20460;-44
2022/09/10 12:38:46;;;;;;;2.60;1.10;;;22.00;59.70;;;;;;5093328;28;20171;-47
2022/09/10 12:41:26;;;;;;;1.70;0.90;;;22.30;59.60;;;;;;5090044;28;20515;-45
2022/09/10 12:43:53;;;;;;;2.13;1.00;;;22.60;57.90;;;;;;5095126;28;20500;-45
2022/09/10 12:46:23;;;;;;;2.03;0.83;;;22.60;57.50;;;;;;5097748;28;20447;-47
2022/09/10 12:48:54;;;;;;;6.27;1.30;;;22.80;57.00;;;;;;5098448;28;20429;-46
2022/09/10 12:51:30;;;;;;;1.43;0.87;;;22.50;57.30;;;;;;5095463;28;20713;-48
2022/09/10 12:54:15;;;;;;;6.03;1.33;;;22.80;57.20;;;;;;5095823;28;20465;-49
2022/09/10 12:56:46;;;;;;;2.23;0.93;;;22.40;57.30;;;;;;5094726;28;20936;-48
2022/09/10 12:59:35;;;;;;;2.70;1.17;;;21.70;58.60;;;;;;5094800;28;20702;-48
2022/09/10 13:02:20;;;;;;;3.83;1.20;;;20.80;60.60;;;;;;5094991;28;20410;-48
2022/09/10 13:04:53;;;;;;;1.43;0.90;;;20.50;62.80;;;;;;5091721;28;20417;-44
2022/09/10 13:07:19;;;;;;;2.37;1.03;;;20.10;63.90;;;;;;5091162;28;20425;-45
2022/09/10 13:09:45;;;;;;;3.40;1.07;;;20.00;65.70;;;;;;5093457;28;20832;-44